sensor_id;sensor_type;location;lat;lon;timestamp;temperature;humidity
44775;DHT22;31340;51.402;0.016;2022-12-07T00:01:54;7.70;99.90
44775;DHT22;31340;51.402;0.016;2022-12-07T00:04:23;7.70;99.90
44775;DHT22;31340;51.402;0.016;2022-12-07T00:07:03;7.70;99.90
44775;DHT22;31340;51.402;0.016;2022-12-07T00:10:02;7.70;99.90
44775;DHT22;31340;51.402;0.016;2022-12-07T00:12:32;7.70;99.90
44775;DHT22;31340;51.402;0.016;2022-12-07T00:15:00;7.70;99.90
44775;DHT22;31340;51.402;0.016;2022-12-07T00:17:32;7.70;99.90
44775;DHT22;31340;51.402;0.016;2022-12-07T00:20:05;7.70;99.90
44775;DHT22;31340;51.402;0.016;2022-12-07T00:22:33;7.70;99.90
44775;DHT22;31340;51.402;0.016;2022-12-07T00:25:01;7.70;99.90
44775;DHT22;31340;51.402;0.016;2022-12-07T00:27:39;7.70;99.90
44775;DHT22;31340;51.402;0.016;2022-12-07T00:30:07;7.70;99.90
44775;DHT22;31340;51.402;0.016;2022-12-07T00:32:34;7.70;99.90
44775;DHT22;31340;51.402;0.016;2022-12-07T00:35:03;7.70;99.90
44775;DHT22;31340;51.402;0.016;2022-12-07T00:37:49;7.70;99.90
44775;DHT22;31340;51.402;0.016;2022-12-07T00:40:23;7.60;99.90
44775;DHT22;31340;51.402;0.016;2022-12-07T00:42:51;7.70;99.90
44775;DHT22;31340;51.402;0.016;2022-12-07T00:45:19;7.70;99.90
44775;DHT22;31340;51.402;0.016;2022-12-07T00:47:52;7.70;99.90
44775;DHT22;31340;51.402;0.016;2022-12-07T00:50:27;7.70;99.90
44775;DHT22;31340;51.402;0.016;2022-12-07T00:52:57;7.70;99.90
44775;DHT22;31340;51.402;0.016;2022-12-07T00:55:35;7.60;99.90
44775;DHT22;31340;51.402;0.016;2022-12-07T00:58:04;7.70;99.90
44775;DHT22;31340;51.402;0.016;2022-12-07T01:00:32;7.60;99.90
44775;DHT22;31340;51.402;0.016;2022-12-07T01:03:05;7.60;99.90
44775;DHT22;31340;51.402;0.016;2022-12-07T01:05:36;7.60;99.90
44775;DHT22;31340;51.402;0.016;2022-12-07T01:08:08;7.60;99.90
44775;DHT22;31340;51.402;0.016;2022-12-07T01:10:41;7.60;99.90
44775;DHT22;31340;51.402;0.016;2022-12-07T01:13:09;7.60;99.90
44775;DHT22;31340;51.402;0.016;2022-12-07T01:15:43;7.70;99.90
44775;DHT22;31340;51.402;0.016;2022-12-07T01:18:12;7.50;99.90
44775;DHT22;31340;51.402;0.016;2022-12-07T01:20:42;7.50;99.90
44775;DHT22;31340;51.402;0.016;2022-12-07T01:23:11;7.40;99.90
44775;DHT22;31340;51.402;0.016;2022-12-07T01:25:39;7.40;99.90
44775;DHT22;31340;51.402;0.016;2022-12-07T01:28:07;7.40;99.90
44775;DHT22;31340;51.402;0.016;2022-12-07T01:30:35;7.40;99.90
44775;DHT22;31340;51.402;0.016;2022-12-07T01:33:02;7.30;99.90
44775;DHT22;31340;51.402;0.016;2022-12-07T01:35:33;7.30;99.90
44775;DHT22;31340;51.402;0.016;2022-12-07T01:38:01;7.30;99.90
44775;DHT22;31340;51.402;0.016;2022-12-07T01:40:28;7.30;99.90
44775;DHT22;31340;51.402;0.016;2022-12-07T01:42:56;7.30;99.90
44775;DHT22;31340;51.402;0.016;2022-12-07T01:45:42;7.20;99.90
44775;DHT22;31340;51.402;0.016;2022-12-07T01:48:11;7.20;99.90
44775;DHT22;31340;51.402;0.016;2022-12-07T01:50:41;7.20;99.90
44775;DHT22;31340;51.402;0.016;2022-12-07T01:53:10;7.10;99.90
44775;DHT22;31340;51.402;0.016;2022-12-07T01:55:41;7.10;99.90
44775;DHT22;31340;51.402;0.016;2022-12-07T01:58:09;7.00;99.90
44775;DHT22;31340;51.402;0.016;2022-12-07T02:00:37;7.10;99.90
44775;DHT22;31340;51.402;0.016;2022-12-07T02:03:18;7.00;99.90
44775;DHT22;31340;51.402;0.016;2022-12-07T02:05:46;7.00;99.90
44775;DHT22;31340;51.402;0.016;2022-12-07T02:08:14;7.00;99.90
44775;DHT22;31340;51.402;0.016;2022-12-07T02:10:42;7.00;99.90
44775;DHT22;31340;51.402;0.016;2022-12-07T02:13:13;7.00;99.90
44775;DHT22;31340;51.402;0.016;2022-12-07T02:24:27;7.00;99.90
44775;DHT22;31340;51.402;0.016;2022-12-07T02:29:40;6.90;99.90
44775;DHT22;31340;51.402;0.016;2022-12-07T02:38:02;6.90;99.90
44775;DHT22;31340;51.402;0.016;2022-12-07T02:43:25;6.80;99.90
44775;DHT22;31340;51.402;0.016;2022-12-07T02:45:59;6.80;99.90
44775;DHT22;31340;51.402;0.016;2022-12-07T02:48:28;6.80;99.90
44775;DHT22;31340;51.402;0.016;2022-12-07T02:50:56;6.80;99.90
44775;DHT22;31340;51.402;0.016;2022-12-07T03:18:33;6.60;99.90
44775;DHT22;31340;51.402;0.016;2022-12-07T03:21:07;6.60;99.90
44775;DHT22;31340;51.402;0.016;2022-12-07T03:23:38;6.60;99.90
44775;DHT22;31340;51.402;0.016;2022-12-07T03:26:09;6.60;99.90
44775;DHT22;31340;51.402;0.016;2022-12-07T03:28:44;6.60;99.90
44775;DHT22;31340;51.402;0.016;2022-12-07T03:31:22;6.50;99.90
44775;DHT22;31340;51.402;0.016;2022-12-07T03:34:14;6.60;99.90
44775;DHT22;31340;51.402;0.016;2022-12-07T03:36:52;6.60;99.90
44775;DHT22;31340;51.402;0.016;2022-12-07T03:39:41;6.50;99.90
44775;DHT22;31340;51.402;0.016;2022-12-07T03:42:12;6.60;99.90
44775;DHT22;31340;51.402;0.016;2022-12-07T03:44:40;6.50;99.90
44775;DHT22;31340;51.402;0.016;2022-12-07T03:47:21;6.60;99.90
44775;DHT22;31340;51.402;0.016;2022-12-07T03:49:56;6.60;99.90
44775;DHT22;31340;51.402;0.016;2022-12-07T03:52:40;6.60;99.90
44775;DHT22;31340;51.402;0.016;2022-12-07T03:55:17;6.60;99.90
44775;DHT22;31340;51.402;0.016;2022-12-07T03:57:48;6.60;99.90
44775;DHT22;31340;51.402;0.016;2022-12-07T04:00:18;6.60;99.90
44775;DHT22;31340;51.402;0.016;2022-12-07T04:02:46;6.60;99.90
44775;DHT22;31340;51.402;0.016;2022-12-07T04:05:14;6.60;99.90
44775;DHT22;31340;51.402;0.016;2022-12-07T04:07:42;6.60;99.90
44775;DHT22;31340;51.402;0.016;2022-12-07T04:10:10;6.70;99.90
44775;DHT22;31340;51.402;0.016;2022-12-07T04:12:37;6.60;99.90
44775;DHT22;31340;51.402;0.016;2022-12-07T04:15:05;6.70;99.90
44775;DHT22;31340;51.402;0.016;2022-12-07T04:17:33;6.70;99.90
44775;DHT22;31340;51.402;0.016;2022-12-07T04:20:01;6.70;99.90
44775;DHT22;31340;51.402;0.016;2022-12-07T04:22:29;6.80;99.90
44775;DHT22;31340;51.402;0.016;2022-12-07T04:24:56;6.70;99.90
44775;DHT22;31340;51.402;0.016;2022-12-07T04:27:24;6.80;99.90
44775;DHT22;31340;51.402;0.016;2022-12-07T04:29:51;6.80;99.90
44775;DHT22;31340;51.402;0.016;2022-12-07T04:32:19;6.80;99.90
44775;DHT22;31340;51.402;0.016;2022-12-07T04:34:46;6.80;99.90
44775;DHT22;31340;51.402;0.016;2022-12-07T04:37:22;6.80;99.90
44775;DHT22;31340;51.402;0.016;2022-12-07T04:39:49;6.80;99.90
44775;DHT22;31340;51.402;0.016;2022-12-07T04:42:17;6.80;99.90
44775;DHT22;31340;51.402;0.016;2022-12-07T04:44:44;6.80;99.90
44775;DHT22;31340;51.402;0.016;2022-12-07T04:47:12;6.80;99.90
44775;DHT22;31340;51.402;0.016;2022-12-07T04:49:39;6.80;99.90
44775;DHT22;31340;51.402;0.016;2022-12-07T04:52:07;6.80;99.90
44775;DHT22;31340;51.402;0.016;2022-12-07T04:54:34;6.80;99.90
44775;DHT22;31340;51.402;0.016;2022-12-07T04:57:02;6.70;99.90
44775;DHT22;31340;51.402;0.016;2022-12-07T04:59:29;6.70;99.90
44775;DHT22;31340;51.402;0.016;2022-12-07T05:01:57;6.80;99.90
44775;DHT22;31340;51.402;0.016;2022-12-07T05:04:24;6.70;99.90
44775;DHT22;31340;51.402;0.016;2022-12-07T05:06:51;6.70;99.90
44775;DHT22;31340;51.402;0.016;2022-12-07T05:09:19;6.70;99.90
44775;DHT22;31340;51.402;0.016;2022-12-07T05:11:46;6.70;99.90
44775;DHT22;31340;51.402;0.016;2022-12-07T05:14:19;6.70;99.90
44775;DHT22;31340;51.402;0.016;2022-12-07T05:16:50;6.70;99.90
44775;DHT22;31340;51.402;0.016;2022-12-07T05:19:19;6.70;99.90
44775;DHT22;31340;51.402;0.016;2022-12-07T05:21:47;6.70;99.90
44775;DHT22;31340;51.402;0.016;2022-12-07T05:24:16;6.70;99.90
44775;DHT22;31340;51.402;0.016;2022-12-07T05:26:44;6.70;99.90
44775;DHT22;31340;51.402;0.016;2022-12-07T05:29:16;6.70;99.90
44775;DHT22;31340;51.402;0.016;2022-12-07T05:31:44;6.70;99.90
44775;DHT22;31340;51.402;0.016;2022-12-07T05:34:13;6.70;99.90
44775;DHT22;31340;51.402;0.016;2022-12-07T05:36:40;6.70;99.90
44775;DHT22;31340;51.402;0.016;2022-12-07T05:39:08;6.70;99.90
44775;DHT22;31340;51.402;0.016;2022-12-07T05:41:35;6.70;99.90
44775;DHT22;31340;51.402;0.016;2022-12-07T05:44:22;6.70;99.90
44775;DHT22;31340;51.402;0.016;2022-12-07T05:46:49;6.70;99.90
44775;DHT22;31340;51.402;0.016;2022-12-07T05:49:17;6.70;99.90
44775;DHT22;31340;51.402;0.016;2022-12-07T05:51:45;6.70;99.90
44775;DHT22;31340;51.402;0.016;2022-12-07T05:54:12;6.70;99.90
44775;DHT22;31340;51.402;0.016;2022-12-07T05:56:40;6.70;99.90
44775;DHT22;31340;51.402;0.016;2022-12-07T05:59:08;6.70;99.90
44775;DHT22;31340;51.402;0.016;2022-12-07T06:02:00;6.70;99.90
44775;DHT22;31340;51.402;0.016;2022-12-07T06:04:30;6.70;99.90
44775;DHT22;31340;51.402;0.016;2022-12-07T06:06:58;6.70;99.90
44775;DHT22;31340;51.402;0.016;2022-12-07T06:09:26;6.70;99.90
44775;DHT22;31340;51.402;0.016;2022-12-07T06:11:55;6.70;99.90
44775;DHT22;31340;51.402;0.016;2022-12-07T06:14:42;6.70;99.90
44775;DHT22;31340;51.402;0.016;2022-12-07T06:17:10;6.70;99.90
44775;DHT22;31340;51.402;0.016;2022-12-07T06:19:38;6.70;99.90
44775;DHT22;31340;51.402;0.016;2022-12-07T06:22:06;6.70;99.90
44775;DHT22;31340;51.402;0.016;2022-12-07T06:24:35;6.70;99.90
44775;DHT22;31340;51.402;0.016;2022-12-07T06:27:03;6.70;99.90
44775;DHT22;31340;51.402;0.016;2022-12-07T06:29:31;6.70;99.90
44775;DHT22;31340;51.402;0.016;2022-12-07T06:31:59;6.70;99.90
44775;DHT22;31340;51.402;0.016;2022-12-07T06:34:27;6.80;99.90
44775;DHT22;31340;51.402;0.016;2022-12-07T06:36:55;6.70;99.90
44775;DHT22;31340;51.402;0.016;2022-12-07T06:39:27;6.70;99.90
44775;DHT22;31340;51.402;0.016;2022-12-07T06:41:56;6.70;99.90
44775;DHT22;31340;51.402;0.016;2022-12-07T06:44:24;6.80;99.90
44775;DHT22;31340;51.402;0.016;2022-12-07T06:46:53;6.80;99.90
44775;DHT22;31340;51.402;0.016;2022-12-07T06:49:40;6.80;99.90
44775;DHT22;31340;51.402;0.016;2022-12-07T06:52:08;6.70;99.90
44775;DHT22;31340;51.402;0.016;2022-12-07T06:54:36;6.70;99.90
44775;DHT22;31340;51.402;0.016;2022-12-07T06:57:04;6.80;99.90
44775;DHT22;31340;51.402;0.016;2022-12-07T06:59:31;6.80;99.90
44775;DHT22;31340;51.402;0.016;2022-12-07T07:01:59;6.80;99.90
44775;DHT22;31340;51.402;0.016;2022-12-07T07:04:27;6.80;99.90
44775;DHT22;31340;51.402;0.016;2022-12-07T07:06:54;6.80;99.90
44775;DHT22;31340;51.402;0.016;2022-12-07T07:09:27;6.80;99.90
44775;DHT22;31340;51.402;0.016;2022-12-07T07:11:54;6.80;99.90
44775;DHT22;31340;51.402;0.016;2022-12-07T07:14:22;6.80;99.90
44775;DHT22;31340;51.402;0.016;2022-12-07T07:16:49;6.80;99.90
44775;DHT22;31340;51.402;0.016;2022-12-07T07:19:17;6.80;99.90
44775;DHT22;31340;51.402;0.016;2022-12-07T07:21:45;6.80;99.90
44775;DHT22;31340;51.402;0.016;2022-12-07T07:24:12;6.80;99.90
44775;DHT22;31340;51.402;0.016;2022-12-07T07:26:40;6.80;99.90
44775;DHT22;31340;51.402;0.016;2022-12-07T07:29:07;6.80;99.90
44775;DHT22;31340;51.402;0.016;2022-12-07T07:31:35;6.80;99.90
44775;DHT22;31340;51.402;0.016;2022-12-07T07:34:03;6.90;99.90
44775;DHT22;31340;51.402;0.016;2022-12-07T07:36:30;6.80;99.90
44775;DHT22;31340;51.402;0.016;2022-12-07T07:38:58;6.80;99.90
44775;DHT22;31340;51.402;0.016;2022-12-07T07:41:26;6.80;99.90
44775;DHT22;31340;51.402;0.016;2022-12-07T07:43:53;6.80;99.90
44775;DHT22;31340;51.402;0.016;2022-12-07T07:46:22;6.80;99.90
44775;DHT22;31340;51.402;0.016;2022-12-07T07:48:50;6.80;99.90
44775;DHT22;31340;51.402;0.016;2022-12-07T07:51:18;6.80;99.90
44775;DHT22;31340;51.402;0.016;2022-12-07T07:53:46;6.80;99.90
44775;DHT22;31340;51.402;0.016;2022-12-07T07:56:13;6.80;99.90
44775;DHT22;31340;51.402;0.016;2022-12-07T07:58:42;6.80;99.90
44775;DHT22;31340;51.402;0.016;2022-12-07T08:01:09;6.80;99.90
44775;DHT22;31340;51.402;0.016;2022-12-07T08:03:39;6.80;99.90
44775;DHT22;31340;51.402;0.016;2022-12-07T08:06:07;6.80;99.90
44775;DHT22;31340;51.402;0.016;2022-12-07T08:08:35;6.80;99.90
44775;DHT22;31340;51.402;0.016;2022-12-07T08:11:05;6.70;99.90
44775;DHT22;31340;51.402;0.016;2022-12-07T08:13:33;6.80;99.90
44775;DHT22;31340;51.402;0.016;2022-12-07T08:16:06;6.70;99.90
44775;DHT22;31340;51.402;0.016;2022-12-07T08:18:36;6.70;99.90
44775;DHT22;31340;51.402;0.016;2022-12-07T08:21:05;6.70;99.90
44775;DHT22;31340;51.402;0.016;2022-12-07T08:23:33;6.70;99.90
44775;DHT22;31340;51.402;0.016;2022-12-07T08:26:08;6.70;99.90
44775;DHT22;31340;51.402;0.016;2022-12-07T08:28:37;6.80;99.90
44775;DHT22;31340;51.402;0.016;2022-12-07T08:31:16;6.80;99.90
44775;DHT22;31340;51.402;0.016;2022-12-07T08:33:47;6.70;99.90
44775;DHT22;31340;51.402;0.016;2022-12-07T08:36:15;6.80;99.90
44775;DHT22;31340;51.402;0.016;2022-12-07T08:38:43;6.80;99.90
44775;DHT22;31340;51.402;0.016;2022-12-07T08:41:32;6.80;99.90
44775;DHT22;31340;51.402;0.016;2022-12-07T08:43:59;6.80;99.90
44775;DHT22;31340;51.402;0.016;2022-12-07T08:46:40;6.80;99.90
44775;DHT22;31340;51.402;0.016;2022-12-07T08:49:18;6.80;99.90
44775;DHT22;31340;51.402;0.016;2022-12-07T08:51:47;6.80;99.90
44775;DHT22;31340;51.402;0.016;2022-12-07T08:54:17;6.80;99.90
44775;DHT22;31340;51.402;0.016;2022-12-07T08:56:46;6.90;99.90
44775;DHT22;31340;51.402;0.016;2022-12-07T08:59:19;6.80;99.90
44775;DHT22;31340;51.402;0.016;2022-12-07T09:01:48;6.90;99.90
44775;DHT22;31340;51.402;0.016;2022-12-07T09:04:15;6.90;99.90
44775;DHT22;31340;51.402;0.016;2022-12-07T09:06:43;6.90;99.90
44775;DHT22;31340;51.402;0.016;2022-12-07T09:09:12;6.90;99.90
44775;DHT22;31340;51.402;0.016;2022-12-07T09:11:40;6.90;99.90
44775;DHT22;31340;51.402;0.016;2022-12-07T09:14:08;7.00;99.90
44775;DHT22;31340;51.402;0.016;2022-12-07T09:16:36;6.90;99.90
44775;DHT22;31340;51.402;0.016;2022-12-07T09:19:04;7.00;99.90
44775;DHT22;31340;51.402;0.016;2022-12-07T09:21:31;7.00;99.90
44775;DHT22;31340;51.402;0.016;2022-12-07T09:23:59;7.00;99.90
44775;DHT22;31340;51.402;0.016;2022-12-07T09:26:27;7.00;99.90
44775;DHT22;31340;51.402;0.016;2022-12-07T09:28:54;7.00;99.90
44775;DHT22;31340;51.402;0.016;2022-12-07T09:31:22;7.00;99.90
44775;DHT22;31340;51.402;0.016;2022-12-07T09:33:59;7.00;99.90
44775;DHT22;31340;51.402;0.016;2022-12-07T09:36:27;7.00;99.90
44775;DHT22;31340;51.402;0.016;2022-12-07T09:38:55;7.10;99.90
44775;DHT22;31340;51.402;0.016;2022-12-07T09:41:24;7.00;99.90
44775;DHT22;31340;51.402;0.016;2022-12-07T09:44:04;7.00;99.90
44775;DHT22;31340;51.402;0.016;2022-12-07T09:46:41;7.00;99.90
44775;DHT22;31340;51.402;0.016;2022-12-07T09:49:13;7.00;99.90
44775;DHT22;31340;51.402;0.016;2022-12-07T09:51:42;7.10;99.90
44775;DHT22;31340;51.402;0.016;2022-12-07T09:54:13;7.00;99.90
44775;DHT22;31340;51.402;0.016;2022-12-07T09:56:42;7.10;99.90
44775;DHT22;31340;51.402;0.016;2022-12-07T09:59:16;7.10;99.90
44775;DHT22;31340;51.402;0.016;2022-12-07T10:01:47;7.10;99.90
44775;DHT22;31340;51.402;0.016;2022-12-07T10:04:20;7.10;99.90
44775;DHT22;31340;51.402;0.016;2022-12-07T10:06:49;7.10;99.90
44775;DHT22;31340;51.402;0.016;2022-12-07T10:09:20;7.10;99.90
44775;DHT22;31340;51.402;0.016;2022-12-07T10:14:34;7.10;99.70
44775;DHT22;31340;51.402;0.016;2022-12-07T10:17:37;7.10;99.60
44775;DHT22;31340;51.402;0.016;2022-12-07T10:20:20;7.10;99.50
44775;DHT22;31340;51.402;0.016;2022-12-07T10:25:36;7.10;99.50
44775;DHT22;31340;51.402;0.016;2022-12-07T10:28:10;7.20;99.50
44775;DHT22;31340;51.402;0.016;2022-12-07T10:36:19;7.30;99.60
44775;DHT22;31340;51.402;0.016;2022-12-07T10:41:25;7.40;99.50
44775;DHT22;31340;51.402;0.016;2022-12-07T10:43:55;7.40;99.40
44775;DHT22;31340;51.402;0.016;2022-12-07T10:49:41;7.40;99.50
44775;DHT22;31340;51.402;0.016;2022-12-07T11:01:21;7.60;99.00
44775;DHT22;31340;51.402;0.016;2022-12-07T11:13:02;7.60;98.80
44775;DHT22;31340;51.402;0.016;2022-12-07T11:18:28;7.70;98.80
44775;DHT22;31340;51.402;0.016;2022-12-07T11:32:08;7.80;98.50
44775;DHT22;31340;51.402;0.016;2022-12-07T11:37:47;7.80;98.10
44775;DHT22;31340;51.402;0.016;2022-12-07T11:40:26;7.80;98.10
44775;DHT22;31340;51.402;0.016;2022-12-07T11:43:01;7.80;98.50
44775;DHT22;31340;51.402;0.016;2022-12-07T11:45:35;7.80;98.10
44775;DHT22;31340;51.402;0.016;2022-12-07T11:48:24;7.90;98.10
44775;DHT22;31340;51.402;0.016;2022-12-07T11:50:56;7.90;98.00
44775;DHT22;31340;51.402;0.016;2022-12-07T11:56:05;7.80;98.00
44775;DHT22;31340;51.402;0.016;2022-12-07T12:03:53;7.80;97.90
44775;DHT22;31340;51.402;0.016;2022-12-07T12:06:23;7.90;98.00
44775;DHT22;31340;51.402;0.016;2022-12-07T12:09:00;7.90;97.90
44775;DHT22;31340;51.402;0.016;2022-12-07T12:23:19;8.00;97.70
44775;DHT22;31340;51.402;0.016;2022-12-07T12:25:51;8.00;97.60
44775;DHT22;31340;51.402;0.016;2022-12-07T12:33:56;8.30;97.70
44775;DHT22;31340;51.402;0.016;2022-12-07T12:47:00;9.40;97.30
44775;DHT22;31340;51.402;0.016;2022-12-07T12:52:55;9.90;96.70
44775;DHT22;31340;51.402;0.016;2022-12-07T12:57:36;10.20;95.90
44775;DHT22;31340;51.402;0.016;2022-12-07T13:00:20;10.40;95.70
44775;DHT22;31340;51.402;0.016;2022-12-07T13:05:22;10.70;95.40
44775;DHT22;31340;51.402;0.016;2022-12-07T13:08:21;10.90;95.00
44775;DHT22;31340;51.402;0.016;2022-12-07T13:10:50;11.00;94.60
44775;DHT22;31340;51.402;0.016;2022-12-07T13:15:54;11.20;94.30
44775;DHT22;31340;51.402;0.016;2022-12-07T13:23:55;11.50;93.60
44775;DHT22;31340;51.402;0.016;2022-12-07T13:29:12;11.60;92.90
44775;DHT22;31340;51.402;0.016;2022-12-07T13:31:52;11.70;92.30
44775;DHT22;31340;51.402;0.016;2022-12-07T13:34:41;11.70;92.00
44775;DHT22;31340;51.402;0.016;2022-12-07T13:39:47;11.70;92.40
44775;DHT22;31340;51.402;0.016;2022-12-07T13:42:26;11.80;92.00
44775;DHT22;31340;51.402;0.016;2022-12-07T13:44:55;11.90;91.50
44775;DHT22;31340;51.402;0.016;2022-12-07T13:49:56;12.10;91.50
44775;DHT22;31340;51.402;0.016;2022-12-07T13:52:25;12.10;91.50
44775;DHT22;31340;51.402;0.016;2022-12-07T13:57:35;12.30;90.80
44775;DHT22;31340;51.402;0.016;2022-12-07T14:00:05;12.30;90.80
44775;DHT22;31340;51.402;0.016;2022-12-07T14:02:34;12.20;90.60
44775;DHT22;31340;51.402;0.016;2022-12-07T14:05:24;12.10;90.60
44775;DHT22;31340;51.402;0.016;2022-12-07T14:07:59;12.00;90.50
44775;DHT22;31340;51.402;0.016;2022-12-07T14:10:38;11.90;90.50
44775;DHT22;31340;51.402;0.016;2022-12-07T14:18:48;11.50;90.40
44775;DHT22;31340;51.402;0.016;2022-12-07T14:21:18;11.40;90.50
44775;DHT22;31340;51.402;0.016;2022-12-07T14:23:47;11.30;90.70
44775;DHT22;31340;51.402;0.016;2022-12-07T14:26:29;11.20;90.80
44775;DHT22;31340;51.402;0.016;2022-12-07T14:31:51;11.00;90.90
44775;DHT22;31340;51.402;0.016;2022-12-07T14:34:23;10.90;91.10
44775;DHT22;31340;51.402;0.016;2022-12-07T14:36:51;10.90;91.00
44775;DHT22;31340;51.402;0.016;2022-12-07T14:39:18;10.80;91.10
44775;DHT22;31340;51.402;0.016;2022-12-07T14:41:46;10.70;91.20
44775;DHT22;31340;51.402;0.016;2022-12-07T14:44:21;10.60;91.20
44775;DHT22;31340;51.402;0.016;2022-12-07T14:46:54;10.60;91.30
44775;DHT22;31340;51.402;0.016;2022-12-07T14:49:42;10.50;91.60
44775;DHT22;31340;51.402;0.016;2022-12-07T14:52:26;10.40;91.50
44775;DHT22;31340;51.402;0.016;2022-12-07T14:55:28;10.40;91.60
44775;DHT22;31340;51.402;0.016;2022-12-07T14:57:56;10.30;91.70
44775;DHT22;31340;51.402;0.016;2022-12-07T15:00:25;10.20;91.80
44775;DHT22;31340;51.402;0.016;2022-12-07T15:02:53;10.10;91.80
44775;DHT22;31340;51.402;0.016;2022-12-07T15:05:22;10.10;91.90
44775;DHT22;31340;51.402;0.016;2022-12-07T15:07:50;10.00;92.00
44775;DHT22;31340;51.402;0.016;2022-12-07T15:10:19;10.00;92.10
44775;DHT22;31340;51.402;0.016;2022-12-07T15:12:51;10.00;92.20
44775;DHT22;31340;51.402;0.016;2022-12-07T15:15:18;9.90;92.30
44775;DHT22;31340;51.402;0.016;2022-12-07T15:17:46;9.80;92.30
44775;DHT22;31340;51.402;0.016;2022-12-07T15:20:14;9.70;92.30
44775;DHT22;31340;51.402;0.016;2022-12-07T15:22:44;9.60;92.40
44775;DHT22;31340;51.402;0.016;2022-12-07T15:25:13;9.60;92.50
44775;DHT22;31340;51.402;0.016;2022-12-07T15:27:41;9.50;92.60
44775;DHT22;31340;51.402;0.016;2022-12-07T15:30:08;9.50;92.80
44775;DHT22;31340;51.402;0.016;2022-12-07T15:32:36;9.40;92.80
44775;DHT22;31340;51.402;0.016;2022-12-07T15:35:04;9.30;92.80
44775;DHT22;31340;51.402;0.016;2022-12-07T15:37:32;9.20;92.80
44775;DHT22;31340;51.402;0.016;2022-12-07T15:39:59;9.20;92.90
44775;DHT22;31340;51.402;0.016;2022-12-07T15:42:35;9.10;93.00
44775;DHT22;31340;51.402;0.016;2022-12-07T15:45:05;9.00;93.30
44775;DHT22;31340;51.402;0.016;2022-12-07T15:47:36;8.90;93.50
44775;DHT22;31340;51.402;0.016;2022-12-07T15:50:24;8.80;93.50
44775;DHT22;31340;51.402;0.016;2022-12-07T15:52:52;8.70;93.60
44775;DHT22;31340;51.402;0.016;2022-12-07T15:55:19;8.70;93.70
44775;DHT22;31340;51.402;0.016;2022-12-07T15:57:47;8.60;93.80
44775;DHT22;31340;51.402;0.016;2022-12-07T16:00:15;8.50;93.90
44775;DHT22;31340;51.402;0.016;2022-12-07T16:02:43;8.50;94.10
44775;DHT22;31340;51.402;0.016;2022-12-07T16:05:11;8.40;94.10
44775;DHT22;31340;51.402;0.016;2022-12-07T16:07:39;8.30;94.20
44775;DHT22;31340;51.402;0.016;2022-12-07T16:10:07;8.30;94.20
44775;DHT22;31340;51.402;0.016;2022-12-07T16:12:35;8.20;94.30
44775;DHT22;31340;51.402;0.016;2022-12-07T16:15:03;8.20;94.40
44775;DHT22;31340;51.402;0.016;2022-12-07T16:17:32;8.10;94.40
44775;DHT22;31340;51.402;0.016;2022-12-07T16:20:00;8.00;94.50
44775;DHT22;31340;51.402;0.016;2022-12-07T16:22:28;8.00;94.60
44775;DHT22;31340;51.402;0.016;2022-12-07T16:24:57;7.90;94.70
44775;DHT22;31340;51.402;0.016;2022-12-07T16:27:25;7.80;94.80
44775;DHT22;31340;51.402;0.016;2022-12-07T16:29:52;7.80;94.90
44775;DHT22;31340;51.402;0.016;2022-12-07T16:32:20;7.70;94.90
44775;DHT22;31340;51.402;0.016;2022-12-07T16:34:48;7.60;95.00
44775;DHT22;31340;51.402;0.016;2022-12-07T16:37:15;7.60;95.10
44775;DHT22;31340;51.402;0.016;2022-12-07T16:39:43;7.50;95.10
44775;DHT22;31340;51.402;0.016;2022-12-07T16:42:11;7.50;95.30
44775;DHT22;31340;51.402;0.016;2022-12-07T16:44:39;7.40;95.30
44775;DHT22;31340;51.402;0.016;2022-12-07T16:47:08;7.30;95.40
44775;DHT22;31340;51.402;0.016;2022-12-07T16:49:36;7.30;95.50
44775;DHT22;31340;51.402;0.016;2022-12-07T16:52:03;7.30;95.60
44775;DHT22;31340;51.402;0.016;2022-12-07T16:54:49;7.20;95.70
44775;DHT22;31340;51.402;0.016;2022-12-07T16:57:17;7.20;95.80
44775;DHT22;31340;51.402;0.016;2022-12-07T16:59:51;7.10;95.90
44775;DHT22;31340;51.402;0.016;2022-12-07T17:02:19;7.10;96.00
44775;DHT22;31340;51.402;0.016;2022-12-07T17:04:47;7.00;96.10
44775;DHT22;31340;51.402;0.016;2022-12-07T17:07:15;7.00;96.20
44775;DHT22;31340;51.402;0.016;2022-12-07T17:09:43;6.90;96.20
44775;DHT22;31340;51.402;0.016;2022-12-07T17:12:11;6.90;96.30
44775;DHT22;31340;51.402;0.016;2022-12-07T17:14:39;6.80;96.30
44775;DHT22;31340;51.402;0.016;2022-12-07T17:17:25;6.80;96.40
44775;DHT22;31340;51.402;0.016;2022-12-07T17:19:53;6.70;96.40
44775;DHT22;31340;51.402;0.016;2022-12-07T17:22:21;6.70;96.60
44775;DHT22;31340;51.402;0.016;2022-12-07T17:24:49;6.70;96.60
44775;DHT22;31340;51.402;0.016;2022-12-07T17:27:17;6.60;96.70
44775;DHT22;31340;51.402;0.016;2022-12-07T17:29:44;6.60;96.70
44775;DHT22;31340;51.402;0.016;2022-12-07T17:32:12;6.60;96.80
44775;DHT22;31340;51.402;0.016;2022-12-07T17:34:40;6.50;96.80
44775;DHT22;31340;51.402;0.016;2022-12-07T17:37:07;6.50;96.90
44775;DHT22;31340;51.402;0.016;2022-12-07T17:39:35;6.40;97.00
44775;DHT22;31340;51.402;0.016;2022-12-07T17:42:03;6.40;97.00
44775;DHT22;31340;51.402;0.016;2022-12-07T17:44:49;6.40;97.10
44775;DHT22;31340;51.402;0.016;2022-12-07T17:47:16;6.30;97.10
44775;DHT22;31340;51.402;0.016;2022-12-07T17:49:45;6.30;97.20
44775;DHT22;31340;51.402;0.016;2022-12-07T17:52:14;6.20;97.30
44775;DHT22;31340;51.402;0.016;2022-12-07T17:55:00;6.20;97.30
44775;DHT22;31340;51.402;0.016;2022-12-07T17:57:28;6.20;97.40
44775;DHT22;31340;51.402;0.016;2022-12-07T17:59:57;6.10;97.40
44775;DHT22;31340;51.402;0.016;2022-12-07T18:02:25;6.10;97.40
44775;DHT22;31340;51.402;0.016;2022-12-07T18:04:55;6.00;97.50
44775;DHT22;31340;51.402;0.016;2022-12-07T18:07:23;6.00;97.60
44775;DHT22;31340;51.402;0.016;2022-12-07T18:09:51;6.00;97.60
44775;DHT22;31340;51.402;0.016;2022-12-07T18:12:18;5.90;97.60
44775;DHT22;31340;51.402;0.016;2022-12-07T18:14:46;5.90;97.70
44775;DHT22;31340;51.402;0.016;2022-12-07T18:17:16;5.90;97.70
44775;DHT22;31340;51.402;0.016;2022-12-07T18:19:44;5.80;97.70
44775;DHT22;31340;51.402;0.016;2022-12-07T18:22:11;5.80;97.80
44775;DHT22;31340;51.402;0.016;2022-12-07T18:24:39;5.80;97.80
44775;DHT22;31340;51.402;0.016;2022-12-07T18:27:07;5.80;97.90
44775;DHT22;31340;51.402;0.016;2022-12-07T18:29:35;5.70;97.90
44775;DHT22;31340;51.402;0.016;2022-12-07T18:32:03;5.70;98.00
44775;DHT22;31340;51.402;0.016;2022-12-07T18:34:32;5.60;97.90
44775;DHT22;31340;51.402;0.016;2022-12-07T18:37:00;5.60;98.00
44775;DHT22;31340;51.402;0.016;2022-12-07T18:39:27;5.60;98.00
44775;DHT22;31340;51.402;0.016;2022-12-07T18:42:00;5.50;98.10
44775;DHT22;31340;51.402;0.016;2022-12-07T18:44:28;5.50;98.10
44775;DHT22;31340;51.402;0.016;2022-12-07T18:46:56;5.50;98.20
44775;DHT22;31340;51.402;0.016;2022-12-07T18:49:24;5.40;98.20
44775;DHT22;31340;51.402;0.016;2022-12-07T18:51:52;5.40;98.30
44775;DHT22;31340;51.402;0.016;2022-12-07T18:54:20;5.40;98.30
44775;DHT22;31340;51.402;0.016;2022-12-07T18:56:47;5.30;98.30